Terminal Aerodrome Forecast
Issued by NWS

Home | Current Version | Previous Version | Text Only | Print | Product List | Glossary Off
Versions: 1 2 3 4 5 6 7 8 9 10 11 12 13 14 15 16 17

000
FTUS43 KBIS 041135
TAFDIK
TAF
KDIK 041135Z 0412/0512 12004KT P6SM SCT060 BKN180
     FM041400 15012KT P6SM BKN070
     FM041700 16015G21KT P6SM BKN070
     FM050200 14010KT P6SM BKN070=

USA.gov is the U.S. government's official web portal to all federal, state and local government web resources and services.